Time;durP1;ratioP1;P1;durP2;ratioP2;P2;SDS_P1;SDS_P2;PMS_P1;PMS_P2;Temp;Humidity;BMP_temperature;BMP_pressure;BME280_temperature;BME280_humidity;BME280_pressure;Samples;Min_cycle;Max_cycle;Signal;HPM_P1;HPM_P2
2024/02/19 00:01:35;;;;;;;1.30;0.87;;;;;;;9.08;100.00;153691.25;5132507;27;20473;-93
2024/02/19 00:04:03;;;;;;;1.50;0.90;;;;;;;9.07;100.00;153688.66;5112650;28;20548;-93
2024/02/19 00:06:30;;;;;;;1.40;0.87;;;;;;;9.06;100.00;153686.06;5102518;27;21029;-92
2024/02/19 00:08:58;;;;;;;3.00;0.70;;;;;;;9.07;100.00;153688.66;5115531;27;20432;-93
2024/02/19 00:11:24;;;;;;;1.00;0.70;;;;;;;9.08;100.00;153691.25;5115260;27;20898;-93
2024/02/19 00:13:51;;;;;;;1.20;0.80;;;;;;;9.10;100.00;153697.72;5114800;27;20550;-93
2024/02/19 00:16:19;;;;;;;1.10;0.63;;;;;;;9.10;100.00;153696.41;5100693;28;20443;-93
2024/02/19 00:18:45;;;;;;;1.10;0.60;;;;;;;9.09;100.00;153695.13;5113493;27;20455;-93
2024/02/19 00:21:12;;;;;;;0.90;0.60;;;;;;;9.08;100.00;153691.25;5107571;28;20793;-93
2024/02/19 00:23:39;;;;;;;1.13;0.60;;;;;;;9.09;100.00;153693.81;5106616;27;20581;-93
2024/02/19 00:26:07;;;;;;;1.30;0.80;;;;;;;9.13;100.00;153704.19;5115130;27;20500;-93
2024/02/19 00:28:33;;;;;;;1.20;0.70;;;;;;;9.14;100.00;153706.75;5114833;27;20491;-92
2024/02/19 00:31:00;;;;;;;1.20;0.80;;;;;;;9.17;100.00;153714.50;5121942;27;20439;-93
2024/02/19 00:33:27;;;;;;;1.70;0.90;;;;;;;9.16;100.00;153711.91;5131125;27;20459;-92
2024/02/19 00:35:54;;;;;;;1.20;0.50;;;;;;;9.17;100.00;153715.81;5133261;27;20474;-92
2024/02/19 00:38:20;;;;;;;1.60;0.80;;;;;;;9.18;100.00;153717.13;5131364;27;20439;-92
2024/02/19 00:40:47;;;;;;;1.23;0.80;;;;;;;9.16;100.00;153713.22;5133410;27;20489;-92
2024/02/19 00:43:15;;;;;;;1.20;0.60;;;;;;;9.14;100.00;153708.03;5133167;27;20485;-93
2024/02/19 00:45:42;;;;;;;1.33;0.67;;;;;;;9.14;100.00;153706.75;5122707;27;20427;-92
2024/02/19 00:48:09;;;;;;;2.27;1.17;;;;;;;9.15;100.00;153710.66;5133764;27;20455;-92
2024/02/19 00:50:35;;;;;;;2.33;0.80;;;;;;;9.16;100.00;153713.22;5133432;27;20470;-92
2024/02/19 00:53:02;;;;;;;1.20;0.50;;;;;;;9.15;100.00;153710.66;5130635;27;20461;-92
2024/02/19 00:55:28;;;;;;;1.40;0.63;;;;;;;9.15;100.00;153710.66;5137050;27;20463;-93
2024/02/19 00:57:55;;;;;;;1.63;0.80;;;;;;;9.16;100.00;153713.22;5126812;27;20450;-92
2024/02/19 01:00:23;;;;;;;0.83;0.43;;;;;;;9.16;100.00;153711.91;5152147;27;20521;-92
2024/02/19 01:02:50;;;;;;;0.80;0.40;;;;;;;9.18;100.00;153718.41;5139848;27;20448;-93
2024/02/19 01:05:17;;;;;;;1.17;0.50;;;;;;;9.19;100.00;153719.69;5131451;27;20462;-91
2024/02/19 01:07:43;;;;;;;0.90;0.40;;;;;;;9.17;100.00;153714.50;5132688;27;20435;-93
2024/02/19 01:10:10;;;;;;;1.37;0.50;;;;;;;9.19;100.00;153719.69;5109081;27;20459;-93
2024/02/19 01:12:38;;;;;;;0.90;0.50;;;;;;;9.18;100.00;153718.41;5131331;27;20490;-92
2024/02/19 01:15:05;;;;;;;0.77;0.40;;;;;;;9.17;100.00;153714.50;5107420;28;20479;-93
2024/02/19 01:17:33;;;;;;;1.00;0.40;;;;;;;9.15;100.00;153710.66;5131991;27;20801;-93
2024/02/19 01:20:00;;;;;;;0.97;0.50;;;;;;;9.13;100.00;153704.19;5107392;28;20943;-93
2024/02/19 01:22:28;;;;;;;0.90;0.60;;;;;;;9.14;100.00;153706.75;5094027;28;20535;-92
2024/02/19 01:24:55;;;;;;;0.80;0.40;;;;;;;9.14;100.00;153706.75;5101851;27;20496;-92
2024/02/19 01:27:23;;;;;;;0.73;0.40;;;;;;;9.16;100.00;153711.91;5103919;27;20479;-92
2024/02/19 01:29:50;;;;;;;1.60;0.40;;;;;;;9.14;100.00;153706.75;5110291;28;20467;-92
2024/02/19 01:32:17;;;;;;;0.90;0.40;;;;;;;9.17;100.00;153714.50;5109887;27;20463;-92
2024/02/19 01:34:45;;;;;;;0.90;0.40;;;;;;;9.19;100.00;153719.69;5132693;27;20473;-92
2024/02/19 01:37:11;;;;;;;0.90;0.47;;;;;;;9.19;100.00;153719.69;5131370;27;20947;-92
2024/02/19 01:39:38;;;;;;;0.77;0.37;;;;;;;9.18;100.00;153717.13;5130553;27;21018;-92
2024/02/19 01:42:05;;;;;;;2.63;0.70;;;;;;;9.17;100.00;153715.81;5132658;27;20523;-92
2024/02/19 01:44:32;;;;;;;0.97;0.50;;;;;;;9.16;100.00;153711.91;5132449;27;20424;-93
2024/02/19 01:46:59;;;;;;;0.77;0.40;;;;;;;9.16;100.00;153711.91;5128123;27;20881;-93
2024/02/19 01:49:26;;;;;;;1.53;0.57;;;;;;;9.15;100.00;153709.34;5108091;28;20432;-92
2024/02/19 01:51:54;;;;;;;1.40;0.50;;;;;;;9.17;100.00;153714.50;5092974;28;20456;-92
2024/02/19 01:54:21;;;;;;;0.83;0.43;;;;;;;9.17;100.00;153714.50;5147376;27;20453;-92
2024/02/19 01:56:48;;;;;;;0.80;0.43;;;;;;;9.18;100.00;153717.13;5132263;27;20455;-93
2024/02/19 01:59:15;;;;;;;0.90;0.50;;;;;;;9.19;100.00;153719.69;5128031;27;20451;-93
2024/02/19 02:01:42;;;;;;;0.73;0.33;;;;;;;9.17;100.00;153714.50;5130264;27;20438;-92
2024/02/19 02:04:10;;;;;;;0.73;0.37;;;;;;;9.14;100.00;153708.03;5130739;27;20520;-92
2024/02/19 02:06:35;;;;;;;0.80;0.43;;;;;;;9.16;100.00;153713.22;5128044;27;20466;-92
2024/02/19 02:09:04;;;;;;;0.70;0.37;;;;;;;9.17;100.00;153714.50;5130744;27;20435;-93
2024/02/19 02:11:31;;;;;;;0.80;0.40;;;;;;;9.19;100.00;153719.69;5112566;27;20191;-93
2024/02/19 02:13:57;;;;;;;0.90;0.40;;;;;;;9.16;100.00;153711.91;5130404;27;20439;-92
2024/02/19 02:16:25;;;;;;;1.33;0.43;;;;;;;9.16;100.00;153711.91;5115158;27;20456;-94
2024/02/19 02:18:52;;;;;;;0.70;0.40;;;;;;;9.16;100.00;153711.91;5109582;27;20550;-94
2024/02/19 02:21:18;;;;;;;2.20;0.50;;;;;;;9.17;100.00;153714.50;5130194;27;20459;-92
2024/02/19 02:23:45;;;;;;;0.80;0.37;;;;;;;9.16;100.00;153713.22;5133038;27;20439;-92
2024/02/19 02:26:13;;;;;;;1.00;0.47;;;;;;;9.16;100.00;153711.91;5130901;27;20451;-92
2024/02/19 02:28:42;;;;;;;0.90;0.40;;;;;;;9.17;100.00;153714.50;5117175;27;20460;-92
2024/02/19 02:31:08;;;;;;;1.60;0.63;;;;;;;9.19;100.00;153719.69;5130164;27;20439;-93
2024/02/19 02:33:35;;;;;;;2.30;0.50;;;;;;;9.15;100.00;153709.34;5111735;27;20629;-93
2024/02/19 02:36:01;;;;;;;1.30;0.50;;;;;;;9.16;100.00;153711.91;5130888;27;20462;-92
2024/02/19 02:38:28;;;;;;;0.80;0.40;;;;;;;9.16;100.00;153713.22;5125314;27;20444;-91
2024/02/19 02:40:55;;;;;;;0.93;0.50;;;;;;;9.15;100.00;153709.34;5128377;27;20889;-92
2024/02/19 02:43:21;;;;;;;0.90;0.40;;;;;;;9.17;100.00;153714.50;5120313;27;20480;-93
2024/02/19 02:45:49;;;;;;;0.80;0.40;;;;;;;9.15;100.00;153709.34;5120781;27;20435;-93
2024/02/19 02:48:15;;;;;;;1.33;0.30;;;;;;;9.15;100.00;153710.66;5128416;27;20460;-93
2024/02/19 02:50:42;;;;;;;0.80;0.60;;;;;;;9.13;100.00;153704.19;5129917;27;20950;-92
2024/02/19 02:53:09;;;;;;;3.17;0.50;;;;;;;9.12;100.00;153702.88;5112100;27;20450;-92
2024/02/19 02:55:35;;;;;;;0.80;0.43;;;;;;;9.13;100.00;153704.19;5112282;27;20478;-93
2024/02/19 02:58:02;;;;;;;0.80;0.40;;;;;;;9.12;100.00;153701.59;5107756;28;21269;-92
2024/02/19 03:00:28;;;;;;;0.83;0.40;;;;;;;9.07;100.00;153689.97;5105548;27;20470;-92
2024/02/19 03:02:56;;;;;;;0.80;0.50;;;;;;;9.07;100.00;153689.97;5120535;27;20460;-92
2024/02/19 03:05:23;;;;;;;1.17;0.50;;;;;;;9.08;100.00;153691.25;5129423;27;20453;-93
2024/02/19 03:07:50;;;;;;;1.10;0.50;;;;;;;9.07;100.00;153688.66;5128775;27;20463;-93
2024/02/19 03:10:17;;;;;;;1.00;0.50;;;;;;;9.06;100.00;153686.06;5128473;28;20509;-92
2024/02/19 03:12:44;;;;;;;1.30;0.67;;;;;;;9.08;100.00;153691.25;5128628;28;20440;-92
2024/02/19 03:15:10;;;;;;;1.07;0.50;;;;;;;9.07;100.00;153688.66;5108743;27;20701;-92
2024/02/19 03:17:38;;;;;;;1.00;0.50;;;;;;;9.05;100.00;153683.50;5108476;28;20470;-92
2024/02/19 03:20:12;;;;;;;1.10;0.50;;;;;;;9.04;100.00;153680.88;5112119;28;20447;-93
2024/02/19 03:22:40;;;;;;;1.30;0.60;;;;;;;9.06;100.00;153687.34;5106576;28;20788;-92
2024/02/19 03:25:07;;;;;;;1.00;0.60;;;;;;;9.06;100.00;153687.34;5135639;27;20444;-92
2024/02/19 03:27:35;;;;;;;1.00;0.60;;;;;;;9.08;100.00;153691.25;5132394;27;20577;-92
2024/02/19 03:30:01;;;;;;;5.37;0.63;;;;;;;9.07;100.00;153688.66;5121261;28;20443;-92
2024/02/19 03:32:28;;;;;;;1.00;0.50;;;;;;;9.07;100.00;153689.97;5127223;28;20451;-92
2024/02/19 03:34:55;;;;;;;1.30;0.60;;;;;;;9.08;100.00;153691.25;5127586;28;20499;-93
2024/02/19 03:37:23;;;;;;;2.27;0.87;;;;;;;9.08;100.00;153692.50;5129391;28;20447;-92
2024/02/19 03:39:49;;;;;;;1.17;0.60;;;;;;;9.05;100.00;153683.50;5127927;28;20533;-93
2024/02/19 03:42:16;;;;;;;0.90;0.57;;;;;;;9.04;100.00;153682.19;5128168;27;20446;-92
2024/02/19 03:44:43;;;;;;;2.23;0.90;;;;;;;9.06;100.00;153686.06;5111777;28;20431;-93
2024/02/19 03:47:10;;;;;;;1.60;0.67;;;;;;;9.06;100.00;153686.06;5129771;28;20467;-92
2024/02/19 03:49:36;;;;;;;1.40;0.90;;;;;;;9.07;100.00;153688.66;5122915;28;20455;-93
2024/02/19 03:52:03;;;;;;;1.70;0.80;;;;;;;9.06;100.00;153686.06;5128729;27;20466;-92
2024/02/19 03:54:31;;;;;;;1.50;0.93;;;;;;;9.07;100.00;153688.66;5129374;27;20443;-93
2024/02/19 03:56:57;;;;;;;1.90;0.93;;;;;;;9.07;100.00;153689.97;5131776;27;20486;-93
2024/02/19 03:59:24;;;;;;;1.47;0.80;;;;;;;9.07;100.00;153688.66;5112139;27;20508;-92
2024/02/19 04:01:50;;;;;;;1.73;1.30;;;;;;;9.07;100.00;153688.66;5133121;27;20439;-93
2024/02/19 04:04:18;;;;;;;2.00;1.30;;;;;;;9.07;100.00;153688.66;5134650;27;20446;-92
2024/02/19 04:06:45;;;;;;;1.47;1.00;;;;;;;9.06;100.00;153686.06;5128111;27;20558;-92
2024/02/19 04:09:11;;;;;;;1.43;0.83;;;;;;;9.05;100.00;153683.50;5131945;27;20457;-91
2024/02/19 04:11:39;;;;;;;1.53;1.00;;;;;;;9.05;100.00;153683.50;5134771;27;20447;-92
2024/02/19 04:14:06;;;;;;;1.70;1.10;;;;;;;9.07;100.00;153688.66;5132208;27;20447;-92
2024/02/19 04:16:32;;;;;;;1.43;1.10;;;;;;;9.06;100.00;153686.06;5129971;27;20961;-92
2024/02/19 04:18:59;;;;;;;2.20;1.30;;;;;;;9.07;100.00;153688.66;5132213;27;20431;-92
2024/02/19 04:21:25;;;;;;;2.93;1.30;;;;;;;9.07;100.00;153689.97;5129646;27;20434;-91
2024/02/19 04:23:52;;;;;;;1.83;1.30;;;;;;;9.08;100.00;153691.25;5143661;27;20451;-92
2024/02/19 04:26:19;;;;;;;1.70;1.30;;;;;;;9.08;100.00;153691.25;5129164;27;20435;-92
2024/02/19 04:28:47;;;;;;;1.80;1.40;;;;;;;9.10;100.00;153696.41;5128301;27;20460;-92
2024/02/19 04:31:13;;;;;;;4.00;1.33;;;;;;;9.11;100.00;153698.97;5126459;27;20459;-92
2024/02/19 04:33:43;;;;;;;2.03;1.40;;;;;;;9.10;100.00;153696.41;5132972;27;20445;-92
2024/02/19 04:36:09;;;;;;;2.20;1.40;;;;;;;9.10;100.00;153697.72;5131260;27;20482;-91
2024/02/19 04:38:36;;;;;;;3.40;1.37;;;;;;;9.12;100.00;153702.88;5116935;27;20446;-91
2024/02/19 04:41:03;;;;;;;3.40;1.60;;;;;;;9.13;100.00;153704.19;5127722;27;20447;-92
2024/02/19 04:43:30;;;;;;;2.50;1.43;;;;;;;9.13;100.00;153705.44;5127437;27;20455;-91
2024/02/19 04:45:57;;;;;;;2.80;1.00;;;;;;;9.10;100.00;153696.41;5120477;27;20491;-91
2024/02/19 04:48:24;;;;;;;1.43;1.13;;;;;;;9.11;100.00;153698.97;5130674;27;20447;-91
2024/02/19 04:50:50;;;;;;;2.17;1.50;;;;;;;9.07;100.00;153689.97;5118759;27;20463;-91
2024/02/19 04:53:18;;;;;;;2.07;1.53;;;;;;;9.07;100.00;153689.97;5127763;27;20566;-91
2024/02/19 04:55:44;;;;;;;2.77;1.30;;;;;;;9.09;100.00;153695.13;5130077;27;21066;-91
2024/02/19 04:58:11;;;;;;;3.67;1.87;;;;;;;9.08;100.00;153692.50;5132863;27;20454;-91
2024/02/19 05:00:40;;;;;;;3.13;2.03;;;;;;;9.10;100.00;153696.41;5130187;27;20455;-91
2024/02/19 05:03:08;;;;;;;2.30;1.60;;;;;;;9.10;100.00;153696.41;5125213;27;20787;-91
2024/02/19 05:05:35;;;;;;;3.03;2.23;;;;;;;9.04;100.00;153680.88;5123808;27;20792;-91
2024/02/19 05:08:01;;;;;;;4.00;2.30;;;;;;;9.01;100.00;153673.13;5127620;27;20514;-90
2024/02/19 05:10:28;;;;;;;3.47;2.37;;;;;;;8.98;100.00;153666.66;5126729;27;20493;-91
2024/02/19 05:12:54;;;;;;;4.30;2.60;;;;;;;8.97;100.00;153662.81;5127901;27;20447;-91
2024/02/19 05:15:21;;;;;;;7.13;3.00;;;;;;;8.98;100.00;153665.34;5130598;27;20439;-91
2024/02/19 05:17:47;;;;;;;4.83;2.70;;;;;;;8.94;100.00;153655.03;5122853;27;20946;-91
2024/02/19 05:20:15;;;;;;;3.60;2.67;;;;;;;8.92;100.00;153649.88;5111152;27;20454;-91
2024/02/19 05:22:42;;;;;;;5.10;2.63;;;;;;;8.91;100.00;153647.28;5127784;27;20479;-91
2024/02/19 05:25:09;;;;;;;4.00;2.60;;;;;;;8.90;100.00;153644.66;5131931;27;20542;-91
2024/02/19 05:27:35;;;;;;;5.00;3.17;;;;;;;8.90;100.00;153644.66;5130472;27;20965;-91
2024/02/19 05:30:02;;;;;;;4.90;3.50;;;;;;;8.90;100.00;153644.66;5132230;27;20436;-91
2024/02/19 05:32:29;;;;;;;4.57;3.00;;;;;;;8.92;100.00;153649.88;5124486;27;20950;-91
2024/02/19 05:34:55;;;;;;;3.50;3.07;;;;;;;8.93;100.00;153652.44;5125712;27;20447;-91
2024/02/19 05:37:23;;;;;;;5.70;3.57;;;;;;;8.88;100.00;153640.81;5130298;27;20487;-91
2024/02/19 05:39:50;;;;;;;7.00;2.87;;;;;;;8.86;100.00;153634.34;5130582;27;21308;-91
2024/02/19 05:42:17;;;;;;;4.23;2.60;;;;;;;8.91;100.00;153648.56;5129734;27;20459;-91
2024/02/19 05:44:44;;;;;;;4.63;2.90;;;;;;;8.91;100.00;153647.28;5096866;28;20426;-91
2024/02/19 05:47:10;;;;;;;5.20;3.03;;;;;;;8.88;100.00;153640.81;5112494;28;20463;-92
2024/02/19 05:49:37;;;;;;;5.83;2.87;;;;;;;8.87;100.00;153636.94;5132319;27;20451;-92
2024/02/19 05:52:05;;;;;;;3.00;2.67;;;;;;;8.86;100.00;153634.34;5109187;27;20459;-92
2024/02/19 05:54:33;;;;;;;4.90;3.33;;;;;;;8.86;100.00;153635.66;5100396;27;20467;-91
2024/02/19 05:57:00;;;;;;;4.07;2.77;;;;;;;8.87;100.00;153636.94;5128334;27;20878;-90
2024/02/19 05:59:28;;;;;;;7.13;3.30;;;;;;;8.88;100.00;153639.50;5130892;27;20495;-91
2024/02/19 06:01:54;;;;;;;4.60;4.00;;;;;;;8.83;100.00;153627.88;5123974;27;20455;-91
2024/02/19 06:04:21;;;;;;;4.47;3.27;;;;;;;8.84;100.00;153629.19;5127445;27;20546;-91
2024/02/19 06:06:47;;;;;;;6.00;3.50;;;;;;;8.84;100.00;153629.19;5133839;27;20452;-91
2024/02/19 06:09:14;;;;;;;5.27;3.33;;;;;;;8.81;100.00;153621.41;5133837;27;20454;-90
2024/02/19 06:11:45;;;;;;;5.17;3.00;;;;;;;8.82;100.00;153623.97;5133088;27;20503;-91
2024/02/19 06:14:12;;;;;;;6.37;3.77;;;;;;;8.80;100.00;153618.81;5133015;27;20570;-91
2024/02/19 06:16:39;;;;;;;5.07;3.80;;;;;;;8.81;100.00;153621.41;5116938;27;20478;-90
2024/02/19 06:19:05;;;;;;;4.73;4.23;;;;;;;8.80;100.00;153620.13;5110261;27;20459;-91
2024/02/19 06:21:32;;;;;;;4.87;3.43;;;;;;;8.80;100.00;153618.81;5115161;27;20443;-91
2024/02/19 06:24:01;;;;;;;6.47;3.40;;;;;;;8.79;100.00;153617.50;5106171;27;20447;-91
2024/02/19 06:26:34;;;;;;;5.30;3.50;;;;;;;8.79;100.00;153616.25;5137465;27;20435;-91
2024/02/19 06:29:03;;;;;;;4.63;2.97;;;;;;;8.78;100.00;153613.66;5111943;27;20490;-91
2024/02/19 06:31:29;;;;;;;6.00;3.70;;;;;;;8.75;100.00;153607.19;5131852;27;20440;-91
2024/02/19 06:33:56;;;;;;;4.80;3.23;;;;;;;8.75;100.00;153605.91;5130088;27;20454;-91
2024/02/19 06:36:23;;;;;;;4.20;3.20;;;;;;;8.75;100.00;153605.91;5128371;27;21213;-91
2024/02/19 06:38:49;;;;;;;4.10;2.73;;;;;;;8.73;100.00;153600.72;5127840;27;20455;-90
2024/02/19 06:41:16;;;;;;;5.30;3.47;;;;;;;8.73;100.00;153600.72;5132657;27;20447;-92
2024/02/19 06:43:43;;;;;;;3.70;3.00;;;;;;;8.73;100.00;153600.72;5135469;27;20477;-91
2024/02/19 06:46:12;;;;;;;4.60;3.20;;;;;;;8.75;100.00;153605.91;5140032;27;20446;-91
2024/02/19 06:48:39;;;;;;;5.47;4.23;;;;;;;8.75;100.00;153607.19;5136972;27;20869;-90
2024/02/19 06:51:06;;;;;;;5.43;3.60;;;;;;;8.75;100.00;153605.91;5136296;27;20496;-89
2024/02/19 06:53:33;;;;;;;5.13;3.37;;;;;;;8.76;100.00;153608.50;5127585;27;20451;-91
2024/02/19 06:56:00;;;;;;;7.00;3.83;;;;;;;8.76;100.00;153608.50;5127074;27;20446;-90
2024/02/19 06:58:29;;;;;;;5.03;3.27;;;;;;;8.75;100.00;153605.91;5115621;27;20479;-90
2024/02/19 07:00:56;;;;;;;4.80;3.40;;;;;;;8.74;100.00;153603.28;5136637;27;20433;-89
2024/02/19 07:03:25;;;;;;;6.23;3.97;;;;;;;8.74;100.00;153604.59;5117444;27;20451;-91
2024/02/19 07:05:51;;;;;;;4.10;3.03;;;;;;;8.75;100.00;153605.91;5137046;27;20543;-90
2024/02/19 07:08:18;;;;;;;4.10;3.43;;;;;;;8.74;100.00;153603.28;5129925;27;20455;-90
2024/02/19 07:10:45;;;;;;;4.63;2.77;;;;;;;8.73;100.00;153602.03;5134569;27;20442;-89
2024/02/19 07:13:11;;;;;;;3.87;2.80;;;;;;;8.72;100.00;153599.44;5111912;27;24097;-90
2024/02/19 07:15:38;;;;;;;4.13;3.00;;;;;;;8.74;100.00;153604.59;5135936;27;21130;-90
2024/02/19 07:18:05;;;;;;;4.87;2.50;;;;;;;8.75;100.00;153605.91;5111678;28;20517;-90
2024/02/19 07:20:33;;;;;;;3.70;3.20;;;;;;;8.72;100.00;153599.44;5110689;28;20490;-89
2024/02/19 07:23:00;;;;;;;3.60;2.97;;;;;;;8.73;100.00;153602.03;5105926;27;20522;-89
2024/02/19 07:25:27;;;;;;;4.83;3.27;;;;;;;8.74;100.00;153603.28;5130634;27;20515;-89
2024/02/19 07:27:53;;;;;;;3.87;2.70;;;;;;;8.76;100.00;153609.81;5131516;27;20819;-89
2024/02/19 07:30:20;;;;;;;4.53;3.10;;;;;;;8.75;100.00;153605.91;5133797;27;20455;-90
2024/02/19 07:32:46;;;;;;;4.20;2.60;;;;;;;8.76;100.00;153609.81;5121213;27;20473;-90
2024/02/19 07:35:13;;;;;;;3.40;2.80;;;;;;;8.78;100.00;153613.66;5133479;27;20462;-89
2024/02/19 07:37:43;;;;;;;4.17;2.50;;;;;;;8.79;100.00;153616.25;5116725;27;20546;-89
2024/02/19 07:40:10;;;;;;;3.03;2.20;;;;;;;8.76;100.00;153608.50;5140277;27;20458;-90
2024/02/19 07:42:37;;;;;;;3.70;2.47;;;;;;;8.80;100.00;153618.81;5131576;27;20973;-90
2024/02/19 07:45:04;;;;;;;2.80;2.10;;;;;;;8.82;100.00;153625.28;5130397;27;20451;-90
2024/02/19 07:47:30;;;;;;;3.13;1.70;;;;;;;8.82;100.00;153623.97;5132646;27;20482;-89
2024/02/19 07:49:57;;;;;;;3.53;2.07;;;;;;;8.83;100.00;153626.59;5112182;27;20483;-90
2024/02/19 07:52:23;;;;;;;3.30;2.10;;;;;;;8.84;100.00;153629.19;5146860;27;20450;-89
2024/02/19 07:54:51;;;;;;;3.57;1.50;;;;;;;8.87;100.00;153636.94;5141749;27;20508;-90
2024/02/19 07:57:18;;;;;;;2.30;1.53;;;;;;;8.92;100.00;153649.88;5132395;27;20544;-89
2024/02/19 07:59:45;;;;;;;3.40;2.00;;;;;;;8.89;100.00;153642.13;5134795;27;20876;-90
2024/02/19 08:02:11;;;;;;;3.17;1.90;;;;;;;8.94;100.00;153655.03;5131181;27;20459;-89
2024/02/19 08:04:38;;;;;;;3.83;1.50;;;;;;;8.93;100.00;153653.72;5135560;27;20507;-89
2024/02/19 08:07:04;;;;;;;3.27;1.30;;;;;;;8.93;100.00;153652.44;5138954;27;20443;-89
2024/02/19 08:09:50;;;;;;;1.83;1.53;;;;;;;8.92;100.00;153651.13;5137093;27;20458;-90
2024/02/19 08:12:18;;;;;;;2.33;1.47;;;;;;;8.94;100.00;153656.34;5131671;27;20690;-89
2024/02/19 08:14:45;;;;;;;2.50;1.53;;;;;;;8.93;100.00;153653.72;5135963;27;20458;-90
2024/02/19 08:17:12;;;;;;;3.20;1.50;;;;;;;8.92;100.00;153651.13;5115992;27;20474;-90
2024/02/19 08:19:39;;;;;;;2.53;1.40;;;;;;;8.87;100.00;153638.22;5118955;27;20953;-90
2024/02/19 08:22:08;;;;;;;1.90;1.40;;;;;;;8.88;100.00;153639.50;5112838;27;20452;-90
2024/02/19 08:24:36;;;;;;;3.10;1.27;;;;;;;8.90;100.00;153644.66;5126794;27;20451;-90
2024/02/19 08:27:07;;;;;;;2.17;1.40;;;;;;;8.88;100.00;153640.81;5118233;27;20478;-90
2024/02/19 08:29:36;;;;;;;1.77;1.20;;;;;;;8.91;100.00;153647.28;5117599;27;20981;-89
2024/02/19 08:32:06;;;;;;;2.20;1.50;;;;;;;8.91;100.00;153648.56;5119151;27;20484;-89
2024/02/19 08:34:32;;;;;;;2.23;1.23;;;;;;;8.93;100.00;153653.72;5111495;27;21043;-88
2024/02/19 08:36:59;;;;;;;3.13;1.43;;;;;;;8.94;100.00;153655.03;5127265;27;20565;-89
2024/02/19 08:39:26;;;;;;;1.70;1.27;;;;;;;8.96;100.00;153661.50;5117725;27;20504;-90
2024/02/19 08:41:55;;;;;;;3.30;1.80;;;;;;;9.01;100.00;153673.13;5113344;28;20543;-90
2024/02/19 08:44:22;;;;;;;3.23;1.30;;;;;;;9.00;100.00;153671.81;5113284;27;20463;-90
2024/02/19 08:47:18;;;;;;;3.07;1.30;;;;;;;9.00;100.00;153670.56;5113706;27;20551;-89
2024/02/19 08:49:47;;;;;;;1.77;1.43;;;;;;;8.99;100.00;153669.25;5110962;27;20443;-89
2024/02/19 08:52:14;;;;;;;1.30;1.00;;;;;;;9.02;100.00;153675.72;5109905;28;20480;-89
2024/02/19 08:54:41;;;;;;;1.67;1.17;;;;;;;9.03;100.00;153678.28;5124653;27;20452;-89
2024/02/19 08:57:07;;;;;;;1.43;1.20;;;;;;;9.03;100.00;153678.28;5129271;27;20981;-88
2024/02/19 08:59:34;;;;;;;2.60;1.20;;;;;;;9.03;100.00;153678.28;5114149;27;20451;-88
2024/02/19 09:02:01;;;;;;;3.10;1.20;;;;;;;9.07;100.00;153688.66;5117438;27;20463;-88
2024/02/19 09:04:29;;;;;;;2.30;1.00;;;;;;;9.10;100.00;153696.41;5125028;27;20443;-88
2024/02/19 09:06:58;;;;;;;1.90;1.33;;;;;;;9.11;100.00;153698.97;5104612;27;20452;-88
2024/02/19 09:09:25;;;;;;;2.57;1.57;;;;;;;9.08;100.00;153692.50;5105051;27;20498;-88
2024/02/19 09:11:51;;;;;;;1.97;1.20;;;;;;;9.11;100.00;153698.97;5109540;27;20943;-88
2024/02/19 09:14:18;;;;;;;2.57;1.37;;;;;;;9.13;100.00;153704.19;5112730;27;21044;-89
2024/02/19 09:16:45;;;;;;;1.77;1.20;;;;;;;9.13;100.00;153704.19;5112815;27;20451;-89
2024/02/19 09:19:14;;;;;;;2.17;1.20;;;;;;;9.13;100.00;153704.19;5128126;27;20462;-90
2024/02/19 09:21:43;;;;;;;3.63;1.40;;;;;;;9.10;100.00;153697.72;5115261;27;20471;-89
2024/02/19 09:24:11;;;;;;;2.07;1.10;;;;;;;9.18;100.00;153717.13;5100055;28;20487;-89
2024/02/19 09:26:38;;;;;;;1.40;0.73;;;;;;;9.23;100.00;153730.03;5130298;27;20514;-89
2024/02/19 09:29:05;;;;;;;2.07;0.80;;;;;;;9.30;100.00;153748.13;5109893;27;20535;-89
2024/02/19 09:31:31;;;;;;;2.30;1.57;;;;;;;9.32;100.00;153753.31;5113985;27;21033;-90
2024/02/19 09:33:59;;;;;;;1.87;1.00;;;;;;;9.33;100.00;153754.59;5129083;27;20945;-86
2024/02/19 09:36:25;;;;;;;2.23;0.97;;;;;;;9.39;100.00;153771.44;5114178;27;20985;-89
2024/02/19 09:38:54;;;;;;;1.50;1.00;;;;;;;9.42;100.00;153779.22;5129961;27;20490;-88
2024/02/19 09:41:20;;;;;;;1.40;0.87;;;;;;;9.42;100.00;153779.22;5117391;27;20458;-87
2024/02/19 09:43:47;;;;;;;1.90;0.90;;;;;;;9.40;100.00;153774.00;5123059;27;20966;-89
2024/02/19 09:46:15;;;;;;;2.10;1.10;;;;;;;9.44;100.00;153783.06;5104511;28;20443;-89
2024/02/19 09:48:44;;;;;;;2.17;1.03;;;;;;;9.44;100.00;153784.38;5103774;27;20886;-89
2024/02/19 09:51:12;;;;;;;1.50;1.00;;;;;;;9.43;100.00;153780.47;5124779;27;20451;-89
2024/02/19 09:53:40;;;;;;;2.17;1.07;;;;;;;9.46;100.00;153789.53;5120819;27;20438;-89
2024/02/19 09:56:13;;;;;;;2.10;1.20;;;;;;;9.48;100.00;153794.69;5134220;27;20447;-90
2024/02/19 09:58:40;;;;;;;2.00;1.30;;;;;;;9.52;100.00;153805.06;5115935;27;20475;-89
2024/02/19 10:01:07;;;;;;;1.80;1.10;;;;;;;9.56;100.00;153815.41;5112858;27;20436;-89
2024/02/19 10:03:34;;;;;;;1.20;0.67;;;;;;;9.55;100.00;153811.53;5097631;27;20784;-89
2024/02/19 10:06:02;;;;;;;1.77;1.00;;;;;;;9.59;100.00;153823.16;5092960;28;20845;-90
2024/02/19 10:08:29;;;;;;;2.07;1.30;;;;;;;9.54;100.00;153810.25;5107099;27;20460;-89
2024/02/19 10:10:56;;;;;;;2.20;1.07;;;;;;;9.56;100.00;153815.41;5113517;27;20440;-89
2024/02/19 10:13:24;;;;;;;1.30;0.83;;;;;;;9.57;100.00;153818.00;5147317;27;20447;-89
2024/02/19 10:15:51;;;;;;;1.70;1.13;;;;;;;9.57;100.00;153818.00;5113218;27;20427;-89
2024/02/19 10:18:19;;;;;;;2.30;1.40;;;;;;;9.57;100.00;153816.69;5115981;27;20486;-89
2024/02/19 10:20:47;;;;;;;1.80;0.97;;;;;;;9.54;100.00;153810.25;5131372;27;20433;-89
2024/02/19 10:23:14;;;;;;;2.30;1.60;;;;;;;9.58;100.00;153820.56;5104259;27;20443;-89
2024/02/19 10:25:41;;;;;;;2.90;1.17;;;;;;;9.57;100.00;153816.69;5107997;27;20447;-89
2024/02/19 10:28:09;;;;;;;2.27;1.20;;;;;;;9.61;100.00;153828.34;5113068;27;20451;-90
2024/02/19 10:30:37;;;;;;;1.90;1.30;;;;;;;9.59;100.00;153823.16;5113191;27;20427;-89
2024/02/19 10:33:05;;;;;;;1.77;1.10;;;;;;;9.58;100.00;153820.56;5102950;28;20436;-89
2024/02/19 10:35:32;;;;;;;3.70;1.40;;;;;;;9.60;100.00;153825.78;5104815;27;20451;-89
2024/02/19 10:37:59;;;;;;;2.40;1.10;;;;;;;9.62;100.00;153830.94;5112743;27;20475;-89
2024/02/19 10:40:26;;;;;;;2.67;1.37;;;;;;;9.63;100.00;153832.25;5130367;27;20440;-89
2024/02/19 10:42:53;;;;;;;4.43;2.10;;;;;;;9.61;100.00;153827.06;5112682;27;20455;-90
2024/02/19 10:45:21;;;;;;;2.30;1.20;;;;;;;9.60;100.00;153825.78;5112999;27;21021;-89
2024/02/19 10:47:49;;;;;;;4.20;1.47;;;;;;;9.59;100.00;153823.16;5125439;27;20537;-89
2024/02/19 10:50:22;;;;;;;2.17;1.30;;;;;;;9.57;100.00;153816.69;5112554;27;20957;-89
2024/02/19 10:52:49;;;;;;;2.00;1.10;;;;;;;9.59;100.00;153823.16;5133300;27;20442;-89
2024/02/19 10:55:17;;;;;;;2.43;1.43;;;;;;;9.61;100.00;153828.34;5120181;27;20442;-89
2024/02/19 10:57:49;;;;;;;3.00;1.07;;;;;;;9.56;100.00;153815.41;5112773;27;20475;-89
2024/02/19 11:00:16;;;;;;;2.63;1.27;;;;;;;9.56;100.00;153815.41;5113329;27;20431;-89
2024/02/19 11:02:43;;;;;;;2.97;1.60;;;;;;;9.55;100.00;153811.53;5133512;27;20443;-89
2024/02/19 11:05:12;;;;;;;2.27;1.50;;;;;;;9.55;100.00;153812.84;5132842;27;20462;-90
2024/02/19 11:07:40;;;;;;;2.80;1.03;;;;;;;9.57;100.00;153816.69;5133006;27;20549;-89
2024/02/19 11:10:08;;;;;;;1.70;1.00;;;;;;;9.63;100.00;153833.53;5133742;27;20422;-90
2024/02/19 11:12:36;;;;;;;2.83;1.43;;;;;;;9.63;100.00;153832.25;5133490;27;20880;-89
2024/02/19 11:15:02;;;;;;;1.90;1.33;;;;;;;9.65;100.00;153837.41;5133341;27;20465;-89
2024/02/19 11:17:29;;;;;;;2.43;1.00;;;;;;;9.66;100.00;153841.25;5111178;27;20463;-89
2024/02/19 11:19:56;;;;;;;1.63;1.43;;;;;;;9.68;100.00;153846.47;5091975;28;20451;-89
2024/02/19 11:22:30;;;;;;;1.33;0.80;;;;;;;9.69;100.00;153849.03;5092043;28;20907;-89
2024/02/19 11:24:58;;;;;;;3.00;1.30;;;;;;;9.71;99.00;153852.94;5124932;28;20474;-89